Terminal Aerodrome Forecast
Issued by NWS Charleston, SC

Home | Current Version | Previous Version | Text Only | Print | Product List | Glossary On
Versions: 1 2 3 4 5 6 7 8 9 10 11 12 13 14
000
FTUS42 KCHS 292300
TAFCHS
TAF
KCHS 292320Z 3000/3024 16005KT P6SM FEW020
     FM300800 00000KT 6SM BR FEW006 SCT015
     FM301400 14008KT P6SM SCT035=

USA.gov is the U.S. government's official web portal to all federal, state and local government web resources and services.